createdAt,value
2022-12-26T00:02:34.970Z,100.00
2022-12-26T00:06:37.072Z,100.00
2022-12-26T00:10:39.168Z,100.00
2022-12-26T00:14:41.288Z,100.00
2022-12-26T00:18:44.407Z,100.00
2022-12-26T00:22:46.416Z,100.00
2022-12-26T00:26:48.420Z,100.00
2022-12-26T00:30:50.419Z,100.00
2022-12-26T00:34:52.447Z,100.00
2022-12-26T00:38:54.544Z,100.00
2022-12-26T00:42:56.579Z,100.00
2022-12-26T00:46:58.674Z,100.00
2022-12-26T00:51:01.251Z,100.00
2022-12-26T00:55:03.373Z,100.00
2022-12-26T00:59:05.439Z,100.00
2022-12-26T01:03:09.190Z,100.00
2022-12-26T01:07:11.170Z,100.00
2022-12-26T01:11:14.959Z,100.00
2022-12-26T01:15:17.029Z,100.00
2022-12-26T01:19:19.059Z,100.00
2022-12-26T01:23:21.092Z,100.00
2022-12-26T01:27:25.076Z,100.00
2022-12-26T01:31:27.311Z,100.00
2022-12-26T01:35:29.389Z,100.00
2022-12-26T01:39:31.490Z,100.00
2022-12-26T01:43:52.284Z,100.00
2022-12-26T01:47:59.022Z,100.00
2022-12-26T01:52:05.549Z,100.00
2022-12-26T01:56:12.205Z,100.00
2022-12-26T02:00:15.412Z,100.00
2022-12-26T02:04:41.965Z,100.00
2022-12-26T02:08:45.754Z,100.00
2022-12-26T02:12:48.497Z,100.00
2022-12-26T02:16:50.627Z,100.00
2022-12-26T02:21:02.006Z,100.00
2022-12-26T02:25:57.154Z,100.00
2022-12-26T02:30:21.252Z,100.00
2022-12-26T02:34:33.197Z,100.00
2022-12-26T02:38:44.772Z,100.00
2022-12-26T02:43:15.865Z,100.00
2022-12-26T02:47:35.689Z,100.00
2022-12-26T02:52:23.429Z,100.00
2022-12-26T02:56:55.444Z,100.00
2022-12-26T03:01:21.946Z,100.00
2022-12-26T03:05:57.588Z,100.00
2022-12-26T03:10:24.019Z,100.00
2022-12-26T03:14:28.254Z,100.00
2022-12-26T03:18:58.860Z,100.00
2022-12-26T03:22:57.705Z,100.00
2022-12-26T03:26:59.879Z,100.00
2022-12-26T03:31:06.742Z,100.00
2022-12-26T03:35:14.321Z,100.00
2022-12-26T03:39:53.835Z,100.00
2022-12-26T03:44:53.280Z,100.00
2022-12-26T03:49:35.161Z,100.00
2022-12-26T03:54:03.387Z,100.00
2022-12-26T03:58:39.381Z,100.00
2022-12-26T04:03:04.666Z,100.00
2022-12-26T04:07:30.924Z,100.00
2022-12-26T04:11:55.414Z,100.00
2022-12-26T04:16:27.003Z,100.00
2022-12-26T04:20:50.958Z,100.00
2022-12-26T04:25:48.383Z,100.00
2022-12-26T04:30:06.110Z,100.00
2022-12-26T04:34:37.410Z,100.00
2022-12-26T04:39:01.364Z,100.00
2022-12-26T04:43:49.520Z,100.00
2022-12-26T04:48:05.246Z,100.00
2022-12-26T04:52:11.887Z,100.00
2022-12-26T04:56:14.735Z,100.00
2022-12-26T05:00:17.176Z,100.00
2022-12-26T05:04:38.466Z,100.00
2022-12-26T05:09:04.044Z,100.00
2022-12-26T05:13:06.026Z,100.00
2022-12-26T05:17:27.334Z,100.00
2022-12-26T05:21:48.461Z,100.00
2022-12-26T05:26:16.695Z,100.00
2022-12-26T05:30:18.812Z,100.00
2022-12-26T05:34:21.351Z,100.00
2022-12-26T05:38:23.381Z,100.00
2022-12-26T05:42:25.405Z,100.00
2022-12-26T05:46:27.503Z,100.00
2022-12-26T05:50:29.813Z,100.00
2022-12-26T05:54:31.865Z,100.00
2022-12-26T05:58:34.340Z,100.00
2022-12-26T06:02:36.488Z,100.00
2022-12-26T06:06:38.657Z,100.00
2022-12-26T06:10:41.022Z,100.00
2022-12-26T06:14:43.075Z,100.00
2022-12-26T06:18:45.266Z,100.00
2022-12-26T06:22:47.280Z,100.00
2022-12-26T06:26:49.754Z,100.00
2022-12-26T06:30:52.616Z,100.00
2022-12-26T06:34:54.607Z,100.00
2022-12-26T06:38:57.213Z,100.00
2022-12-26T06:42:59.217Z,100.00
2022-12-26T06:47:01.401Z,100.00
2022-12-26T06:51:09.557Z,100.00
2022-12-26T06:55:11.573Z,100.00
2022-12-26T06:59:13.653Z,100.00
2022-12-26T07:03:15.791Z,100.00
2022-12-26T07:07:17.858Z,100.00
2022-12-26T07:11:23.281Z,100.00
2022-12-26T07:15:25.297Z,100.00
2022-12-26T07:19:27.329Z,100.00
2022-12-26T07:23:30.789Z,100.00
2022-12-26T07:27:32.813Z,100.00
2022-12-26T07:31:34.856Z,100.00
2022-12-26T07:35:36.925Z,100.00
2022-12-26T07:39:38.908Z,100.00
2022-12-26T07:43:40.918Z,100.00
2022-12-26T07:47:42.944Z,100.00
2022-12-26T07:51:44.969Z,100.00
2022-12-26T07:55:48.263Z,100.00
2022-12-26T07:59:53.419Z,100.00
2022-12-26T08:03:57.539Z,100.00
2022-12-26T08:07:59.579Z,100.00
2022-12-26T08:12:01.568Z,100.00
2022-12-26T08:16:08.178Z,100.00
2022-12-26T08:20:10.480Z,100.00
2022-12-26T08:24:13.456Z,100.00
2022-12-26T08:28:15.531Z,100.00
2022-12-26T08:32:17.582Z,100.00
2022-12-26T08:36:19.661Z,100.00
2022-12-26T08:40:39.962Z,100.00
2022-12-26T08:44:43.647Z,100.00
2022-12-26T08:48:46.396Z,100.00
2022-12-26T08:52:48.394Z,100.00
2022-12-26T08:56:50.383Z,100.00
2022-12-26T09:00:55.429Z,100.00
2022-12-26T09:04:57.717Z,100.00
2022-12-26T09:09:00.479Z,100.00
2022-12-26T09:13:02.547Z,100.00
2022-12-26T09:17:04.597Z,100.00
2022-12-26T09:21:08.617Z,100.00
2022-12-26T09:25:10.626Z,100.00
2022-12-26T09:29:13.412Z,100.00
2022-12-26T09:33:15.444Z,99.47
2022-12-26T09:37:17.432Z,99.45
2022-12-26T09:41:47.144Z,99.77
2022-12-26T09:45:54.181Z,100.00
2022-12-26T09:50:31.835Z,100.00
2022-12-26T09:54:39.128Z,100.00
2022-12-26T09:58:47.206Z,100.00
2022-12-26T10:02:54.765Z,100.00
2022-12-26T10:07:11.998Z,100.00
2022-12-26T10:11:52.032Z,100.00
2022-12-26T10:15:57.217Z,98.95
2022-12-26T10:20:11.516Z,98.65
2022-12-26T10:24:21.825Z,98.16
2022-12-26T10:28:28.557Z,97.99
2022-12-26T10:32:38.497Z,96.97
2022-12-26T10:36:46.443Z,95.16
2022-12-26T10:40:53.204Z,94.86
2022-12-26T10:44:55.340Z,95.29
2022-12-26T10:48:58.816Z,94.47
2022-12-26T10:53:04.845Z,94.46
2022-12-26T10:57:08.385Z,94.11
2022-12-26T11:01:37.830Z,94.12
2022-12-26T11:10:16.364Z,93.12
2022-12-26T11:14:42.188Z,92.49
2022-12-26T11:18:50.123Z,92.67
2022-12-26T11:22:53.086Z,91.97
2022-12-26T11:27:20.240Z,91.21
2022-12-26T11:31:26.870Z,90.88
2022-12-26T11:35:35.034Z,89.19
2022-12-26T11:39:38.472Z,87.95
2022-12-26T11:43:40.533Z,88.13
2022-12-26T11:47:45.882Z,88.75
2022-12-26T11:51:57.121Z,87.96
2022-12-26T11:56:05.339Z,88.55
2022-12-26T12:00:21.983Z,88.13
2022-12-26T12:04:24.212Z,87.45
2022-12-26T12:08:50.817Z,87.44
2022-12-26T12:13:12.686Z,87.44
2022-12-26T12:17:23.781Z,86.89
2022-12-26T12:21:48.612Z,87.47
2022-12-26T12:26:20.202Z,87.64
2022-12-26T12:30:28.138Z,88.86
2022-12-26T12:34:45.187Z,91.22
2022-12-26T12:38:56.781Z,91.53
2022-12-26T12:43:23.549Z,92.90
2022-12-26T12:47:36.370Z,95.02
2022-12-26T12:52:03.539Z,95.29
2022-12-26T12:56:43.984Z,95.12
2022-12-26T13:00:52.391Z,95.47
2022-12-26T13:05:04.656Z,96.67
2022-12-26T13:09:30.401Z,97.21
2022-12-26T13:13:54.065Z,97.97
2022-12-26T13:18:05.720Z,97.77
2022-12-26T13:22:26.107Z,98.37
2022-12-26T13:26:37.180Z,99.33
2022-12-26T13:30:39.584Z,100.00
2022-12-26T13:34:44.205Z,100.00
2022-12-26T13:38:58.490Z,100.00
2022-12-26T13:43:27.774Z,99.89
2022-12-26T13:47:31.104Z,100.00
2022-12-26T13:51:49.096Z,100.00
2022-12-26T13:55:53.882Z,98.71
2022-12-26T14:00:23.333Z,98.24
2022-12-26T14:04:47.676Z,98.65
2022-12-26T14:09:04.640Z,97.88
2022-12-26T14:13:31.247Z,98.68
2022-12-26T14:17:45.868Z,98.85
2022-12-26T14:21:50.769Z,99.00
2022-12-26T14:26:19.368Z,99.61
2022-12-26T14:30:34.096Z,99.93
2022-12-26T14:35:13.714Z,99.81
2022-12-26T14:39:22.288Z,100.00
2022-12-26T14:43:32.300Z,100.00
2022-12-26T14:47:47.496Z,100.00
2022-12-26T14:51:50.063Z,100.00
2022-12-26T14:55:59.182Z,100.00
2022-12-26T15:00:26.021Z,100.00
2022-12-26T15:04:49.727Z,100.00
2022-12-26T15:09:23.061Z,100.00
2022-12-26T15:14:01.662Z,100.00
2022-12-26T15:18:03.567Z,100.00
2022-12-26T15:22:27.566Z,100.00
2022-12-26T15:27:01.207Z,100.00
2022-12-26T15:31:26.454Z,100.00
2022-12-26T15:35:35.959Z,100.00
2022-12-26T15:40:12.151Z,100.00
2022-12-26T15:45:02.299Z,100.00
2022-12-26T15:49:49.016Z,100.00
2022-12-26T15:54:13.171Z,100.00
2022-12-26T15:58:50.569Z,100.00
2022-12-26T16:03:14.651Z,100.00
2022-12-26T16:07:50.615Z,100.00
2022-12-26T16:11:58.574Z,100.00
2022-12-26T16:16:00.821Z,100.00
2022-12-26T16:20:41.146Z,100.00
2022-12-26T16:24:44.139Z,100.00
2022-12-26T16:28:46.429Z,100.00
2022-12-26T16:32:49.652Z,100.00
2022-12-26T16:36:51.912Z,99.70
2022-12-26T16:40:55.607Z,89.06
2022-12-26T16:44:58.312Z,96.15
2022-12-26T16:49:01.766Z,99.00
2022-12-26T16:53:15.515Z,100.00
2022-12-26T16:57:21.962Z,100.00
2022-12-26T17:01:24.137Z,100.00
2022-12-26T17:05:36.067Z,100.00
2022-12-26T17:09:55.899Z,100.00
2022-12-26T17:13:58.953Z,100.00
2022-12-26T17:18:39.482Z,100.00
2022-12-26T17:22:41.506Z,100.00
2022-12-26T17:26:44.205Z,100.00
2022-12-26T17:30:48.742Z,100.00
2022-12-26T17:34:50.824Z,100.00
2022-12-26T17:38:53.339Z,100.00
2022-12-26T17:43:05.032Z,100.00
2022-12-26T17:47:31.273Z,100.00
2022-12-26T17:51:34.406Z,100.00
2022-12-26T17:55:36.392Z,100.00
2022-12-26T17:59:38.391Z,100.00
2022-12-26T18:03:40.381Z,100.00
2022-12-26T18:07:44.089Z,100.00
2022-12-26T18:11:46.074Z,100.00
2022-12-26T18:15:48.264Z,100.00
2022-12-26T18:19:50.343Z,100.00
2022-12-26T18:23:52.503Z,100.00
2022-12-26T18:27:54.573Z,100.00
2022-12-26T18:31:56.819Z,100.00
2022-12-26T18:36:03.007Z,100.00
2022-12-26T18:40:24.711Z,100.00
2022-12-26T18:44:26.865Z,100.00
2022-12-26T18:48:28.843Z,100.00
2022-12-26T18:52:30.863Z,98.13
2022-12-26T18:56:32.937Z,97.36
2022-12-26T19:00:36.277Z,94.79
2022-12-26T19:04:38.360Z,95.44
2022-12-26T19:08:40.543Z,95.07
2022-12-26T19:12:43.039Z,94.38
2022-12-26T19:16:45.516Z,93.07
2022-12-26T19:20:47.586Z,93.21
2022-12-26T19:24:50.664Z,90.86
2022-12-26T19:28:54.567Z,90.54
2022-12-26T19:32:56.570Z,86.26
2022-12-26T19:36:58.685Z,87.36
2022-12-26T19:41:08.023Z,88.37
2022-12-26T19:45:11.294Z,89.11
2022-12-26T19:49:13.325Z,90.72
2022-12-26T19:53:15.355Z,92.69
2022-12-26T19:57:17.349Z,93.48
2022-12-26T20:01:28.008Z,93.07
2022-12-26T20:05:30.078Z,92.99
2022-12-26T20:09:32.366Z,92.01
2022-12-26T20:13:35.208Z,91.87
2022-12-26T20:17:37.244Z,91.50
2022-12-26T20:21:39.512Z,91.56
2022-12-26T20:25:41.509Z,91.44
2022-12-26T20:29:43.791Z,90.00
2022-12-26T20:33:47.646Z,88.53
2022-12-26T20:37:49.625Z,86.75
2022-12-26T20:41:51.611Z,87.16
2022-12-26T20:45:54.971Z,87.69
2022-12-26T20:49:56.999Z,85.90
2022-12-26T20:53:59.080Z,87.27
2022-12-26T20:58:01.117Z,88.11
2022-12-26T21:02:03.401Z,88.86
2022-12-26T21:06:08.516Z,90.01
2022-12-26T21:10:11.472Z,93.41
2022-12-26T21:14:17.660Z,88.95
2022-12-26T21:18:19.654Z,87.61
2022-12-26T21:22:21.648Z,88.29
2022-12-26T21:26:24.748Z,89.12
2022-12-26T21:30:26.768Z,89.65
2022-12-26T21:34:31.013Z,90.25
2022-12-26T21:38:33.024Z,90.85
2022-12-26T21:42:35.020Z,91.34
2022-12-26T21:46:37.090Z,91.93
2022-12-26T21:50:44.508Z,91.68
2022-12-26T21:55:05.235Z,90.73
2022-12-26T21:59:27.842Z,91.29
2022-12-26T22:03:48.257Z,91.77
2022-12-26T22:07:59.244Z,92.11
2022-12-26T22:12:19.745Z,92.84
2022-12-26T22:16:21.906Z,93.01
2022-12-26T22:20:24.218Z,93.36
2022-12-26T22:24:26.231Z,97.09
2022-12-26T22:28:30.029Z,94.88
2022-12-26T22:32:32.016Z,94.34
2022-12-26T22:36:34.437Z,93.74
2022-12-26T22:40:36.450Z,93.50
2022-12-26T22:44:38.440Z,93.63
2022-12-26T22:48:41.613Z,92.83
2022-12-26T22:52:44.252Z,92.53
2022-12-26T22:56:46.261Z,91.72
2022-12-26T23:00:48.290Z,91.74
2022-12-26T23:04:50.562Z,91.61
2022-12-26T23:08:54.574Z,91.35
2022-12-26T23:12:57.055Z,91.68
2022-12-26T23:17:04.933Z,91.80
2022-12-26T23:21:38.808Z,92.14
2022-12-26T23:25:41.006Z,93.58
2022-12-26T23:30:03.340Z,93.06
2022-12-26T23:34:05.407Z,92.33
2022-12-26T23:38:07.412Z,91.41
2022-12-26T23:42:09.418Z,91.02
2022-12-26T23:46:11.458Z,89.81
2022-12-26T23:50:15.363Z,89.55
2022-12-26T23:54:17.399Z,88.78
2022-12-26T23:58:19.412Z,87.37
